Time;durP1;ratioP1;P1;durP2;ratioP2;P2;SDS_P1;SDS_P2;PMS_P1;PMS_P2;Temp;Humidity;BMP_temperature;BMP_pressure;BME280_temperature;BME280_humidity;BME280_pressure;Samples;Min_cycle;Max_cycle;Signal;HPM_P1;HPM_P2
2022/12/09 00:00:32;;;;;;;32.25;18.17;;;;;;;-0.68;100.00;100535.84;2072294;28;31251;-71
2022/12/09 00:01:34;;;;;;;27.38;17.33;;;;;;;-0.69;100.00;100537.59;2071827;28;33833;-72
2022/12/09 00:02:36;;;;;;;25.85;15.85;;;;;;;-0.69;100.00;100540.25;2072147;28;36638;-72
2022/12/09 00:03:38;;;;;;;29.20;17.58;;;;;;;-0.68;100.00;100542.03;2072041;28;32279;-72
2022/12/09 00:04:40;;;;;;;29.05;15.98;;;;;;;-0.68;100.00;100535.84;2072549;28;20116;-72
2022/12/09 00:05:42;;;;;;;26.33;15.43;;;;;;;-0.69;100.00;100540.25;2063239;28;36269;-71
2022/12/09 00:06:43;;;;;;;27.17;16.95;;;;;;;-0.69;100.00;100542.00;2065650;28;37236;-72
2022/12/09 00:07:45;;;;;;;29.23;15.77;;;;;;;-0.68;100.00;100543.75;2072477;28;37588;-71
2022/12/09 00:08:48;;;;;;;26.98;15.32;;;;;;;-0.68;100.00;100543.75;2072129;28;38986;-72
2022/12/09 00:09:50;;;;;;;27.33;16.42;;;;;;;-0.68;100.00;100543.75;2072001;28;30331;-71
2022/12/09 00:10:51;;;;;;;29.77;16.52;;;;;;;-0.67;100.00;100543.78;2072159;28;34973;-72
2022/12/09 00:11:53;;;;;;;31.95;17.10;;;;;;;-0.65;100.00;100534.16;2071691;28;36009;-72
2022/12/09 00:12:55;;;;;;;26.48;16.73;;;;;;;-0.66;100.00;100536.78;2071742;28;34622;-71
2022/12/09 00:13:58;;;;;;;29.10;16.70;;;;;;;-0.67;100.00;100538.50;2072042;28;31258;-71
2022/12/09 00:15:00;;;;;;;27.92;16.55;;;;;;;-0.67;100.00;100540.28;2071962;28;28964;-71
2022/12/09 00:16:11;;;;;;;29.08;14.90;;;;;;;-0.67;100.00;100545.53;2071773;28;36283;-71
2022/12/09 00:17:13;;;;;;;25.23;14.98;;;;;;;-0.68;100.00;100543.75;2072115;28;31097;-72
2022/12/09 00:18:18;;;;;;;26.45;14.85;;;;;;;-0.68;100.00;100542.03;2072054;28;20169;-71
2022/12/09 00:19:20;;;;;;;27.98;16.23;;;;;;;-0.67;100.00;100538.50;2071786;28;32175;-72
2022/12/09 00:20:22;;;;;;;28.05;13.55;;;;;;;-0.66;100.00;100535.03;2071950;28;30766;-71
2022/12/09 00:21:28;;;;;;;23.95;14.90;;;;;;;-0.66;100.00;100537.66;2071701;28;34155;-71
2022/12/09 00:22:31;;;;;;;28.08;15.90;;;;;;;-0.66;100.00;100539.44;2071599;28;29328;-72
2022/12/09 00:23:32;;;;;;;29.30;16.65;;;;;;;-0.67;100.00;100532.38;2072165;28;29985;-72
2022/12/09 00:24:34;;;;;;;23.90;14.68;;;;;;;-0.65;100.00;100538.53;2071541;28;35180;-72
2022/12/09 00:25:36;;;;;;;26.05;16.02;;;;;;;-0.67;100.00;100542.91;2054575;28;39258;-72
2022/12/09 00:26:38;;;;;;;26.20;14.82;;;;;;;-0.67;100.00;100540.28;2055268;28;33391;-72
2022/12/09 00:27:40;;;;;;;24.45;15.38;;;;;;;-0.69;100.00;100534.09;2072346;28;23005;-71
2022/12/09 00:28:43;;;;;;;22.88;14.48;;;;;;;-0.67;100.00;100537.63;2055339;28;20056;-72
2022/12/09 00:29:44;;;;;;;24.40;15.18;;;;;;;-0.68;100.00;100542.03;2047580;28;29945;-72
2022/12/09 00:30:46;;;;;;;25.13;15.05;;;;;;;-0.66;100.00;100539.44;2055657;28;21029;-72
2022/12/09 00:31:54;;;;;;;25.08;15.25;;;;;;;-0.68;100.00;100541.13;2063704;28;20047;-72
2022/12/09 00:32:58;;;;;;;22.55;14.77;;;;;;;-0.69;100.00;100542.88;2063088;28;20887;-72
2022/12/09 00:34:05;;;;;;;19.10;12.63;;;;;;;-0.70;100.00;100543.75;2072183;28;21456;-72
2022/12/09 00:35:07;;;;;;;22.85;14.60;;;;;;;-0.72;100.00;100544.56;2071881;28;23946;-72
2022/12/09 00:36:13;;;;;;;24.63;15.23;;;;;;;-0.73;100.00;100545.44;2063465;28;20035;-73
2022/12/09 00:37:15;;;;;;;20.98;13.00;;;;;;;-0.77;100.00;100545.38;2063785;28;23535;-72
2022/12/09 00:38:19;;;;;;;24.58;14.63;;;;;;;-0.79;100.00;100543.56;2071626;28;20043;-72
2022/12/09 00:39:21;;;;;;;18.17;12.32;;;;;;;-0.80;100.00;100542.69;2071263;28;26526;-72
2022/12/09 00:40:23;;;;;;;22.98;14.98;;;;;;;-0.83;100.00;100547.88;2063410;28;22658;-72
2022/12/09 00:41:27;;;;;;;22.02;13.90;;;;;;;-0.81;100.00;100543.56;2063327;28;25088;-72
2022/12/09 00:42:28;;;;;;;25.25;15.13;;;;;;;-0.80;100.00;100547.06;2071718;28;20919;-72
2022/12/09 00:43:31;;;;;;;24.88;16.40;;;;;;;-0.83;100.00;100553.16;2071830;28;29515;-72
2022/12/09 00:44:33;;;;;;;20.40;13.52;;;;;;;-0.84;100.00;100548.75;2072413;28;20168;-72
2022/12/09 00:45:37;;;;;;;24.67;15.20;;;;;;;-0.84;100.00;100550.53;2062352;28;27191;-72
2022/12/09 00:46:39;;;;;;;25.20;15.48;;;;;;;-0.86;100.00;100553.13;2055447;28;31665;-72
2022/12/09 00:47:41;;;;;;;21.52;13.88;;;;;;;-0.87;100.00;100543.44;2054834;28;20556;-72
2022/12/09 00:48:44;;;;;;;23.50;14.05;;;;;;;-0.90;100.00;100535.50;2063600;28;20703;-73
2022/12/09 00:49:46;;;;;;;20.15;13.77;;;;;;;-0.90;100.00;100546.00;2063278;28;20047;-72
2022/12/09 00:50:48;;;;;;;24.27;14.63;;;;;;;-0.94;100.00;100541.56;2064506;28;20070;-72
2022/12/09 00:51:52;;;;;;;24.75;14.02;;;;;;;-0.98;100.00;100538.00;2071893;28;23582;-72
2022/12/09 00:52:55;;;;;;;21.23;14.00;;;;;;;-1.00;100.00;100538.84;2071957;28;20056;-72
2022/12/09 00:53:57;;;;;;;19.90;13.52;;;;;;;-1.04;100.00;100537.91;2071896;28;29002;-72
2022/12/09 00:55:00;;;;;;;25.52;15.68;;;;;;;-1.08;100.00;100535.19;2063908;28;21010;-72
2022/12/09 00:56:01;;;;;;;21.80;13.80;;;;;;;-1.09;100.00;100539.56;2062947;28;31030;-72
2022/12/09 00:57:03;;;;;;;25.15;14.95;;;;;;;-1.11;100.00;100535.13;2072600;28;20255;-72
2022/12/09 00:58:05;;;;;;;20.98;13.55;;;;;;;-1.14;100.00;100535.97;2071623;28;26328;-72
2022/12/09 00:59:07;;;;;;;23.52;13.77;;;;;;;-1.17;100.00;100539.44;2072621;28;20966;-72
2022/12/09 01:00:10;;;;;;;26.23;15.52;;;;;;;-1.20;100.00;100536.75;2072181;28;20768;-72
2022/12/09 01:01:12;;;;;;;24.73;14.80;;;;;;;-1.14;100.00;100540.34;2063158;28;33457;-71
2022/12/09 01:02:14;;;;;;;25.15;15.75;;;;;;;-1.17;100.00;100544.69;2063491;28;24198;-71
2022/12/09 01:03:17;;;;;;;26.33;16.00;;;;;;;-1.18;100.00;100545.53;2071951;28;20046;-71
2022/12/09 01:04:19;;;;;;;24.67;15.30;;;;;;;-1.19;100.00;100546.38;2062840;28;28085;-72
2022/12/09 01:05:21;;;;;;;23.88;14.80;;;;;;;-1.20;100.00;100534.13;2063179;28;27925;-71
2022/12/09 01:06:27;;;;;;;26.17;15.13;;;;;;;-1.17;100.00;100542.06;2071241;28;25197;-71
2022/12/09 01:07:28;;;;;;;28.02;15.30;;;;;;;-1.17;100.00;100543.78;2063859;28;20105;-72
2022/12/09 01:08:30;;;;;;;27.40;16.50;;;;;;;-1.16;100.00;100538.56;2063793;28;25602;-71
2022/12/09 01:09:33;;;;;;;30.05;17.02;;;;;;;-1.16;100.00;100543.81;2071727;28;35261;-71
2022/12/09 01:10:38;;;;;;;30.30;16.55;;;;;;;-1.14;100.00;100540.34;2062703;28;20047;-71
2022/12/09 01:11:40;;;;;;;27.13;15.70;;;;;;;-1.17;100.00;100536.81;2063744;28;20046;-72
2022/12/09 01:12:42;;;;;;;25.95;15.45;;;;;;;-1.20;100.00;100539.38;2063252;28;23336;-71
2022/12/09 01:13:43;;;;;;;27.70;14.98;;;;;;;-1.20;100.00;100533.25;2055592;28;20027;-72
2022/12/09 01:14:45;;;;;;;27.67;15.98;;;;;;;-1.21;100.00;100534.97;2062932;28;30960;-72
2022/12/09 01:15:47;;;;;;;27.13;15.95;;;;;;;-1.25;100.00;100538.41;2071613;28;26917;-71
2022/12/09 01:16:49;;;;;;;27.83;15.30;;;;;;;-1.28;100.00;100538.34;2071815;28;20168;-71
2022/12/09 01:17:51;;;;;;;29.25;16.25;;;;;;;-1.32;100.00;100533.91;2072010;28;25695;-71
2022/12/09 01:18:56;;;;;;;24.52;15.30;;;;;;;-1.33;100.00;100526.84;2071485;28;30248;-72
2022/12/09 01:19:58;;;;;;;26.40;15.98;;;;;;;-1.32;100.00;100543.53;2054891;28;29667;-71
2022/12/09 01:21:02;;;;;;;32.92;16.92;;;;;;;-1.36;100.00;100532.94;2055717;28;20079;-72
2022/12/09 01:22:06;;;;;;;25.73;13.68;;;;;;;-1.37;100.00;100538.16;2072337;28;20033;-71
2022/12/09 01:23:08;;;;;;;24.08;15.25;;;;;;;-1.42;100.00;100542.44;2071674;28;27563;-71
2022/12/09 01:24:10;;;;;;;25.17;14.98;;;;;;;-1.43;100.00;100540.69;2072108;28;20265;-71
2022/12/09 01:25:15;;;;;;;26.55;15.52;;;;;;;-1.48;100.00;100539.72;2071742;28;25320;-72
2022/12/09 01:26:20;;;;;;;26.45;15.60;;;;;;;-1.49;100.00;100540.56;2063907;28;20046;-72
2022/12/09 01:27:22;;;;;;;26.98;15.23;;;;;;;-1.52;100.00;100540.50;2063212;28;24458;-72
2022/12/09 01:28:23;;;;;;;28.33;16.05;;;;;;;-1.58;100.00;100546.50;2071223;28;27995;-73
2022/12/09 01:29:25;;;;;;;32.30;17.20;;;;;;;-1.59;100.00;100537.75;2071389;28;29248;-72
2022/12/09 01:30:27;;;;;;;29.10;16.17;;;;;;;-1.65;100.00;100545.53;2063519;28;20054;-72
2022/12/09 01:31:29;;;;;;;28.48;17.50;;;;;;;-1.66;100.00;100548.97;2062850;28;24123;-72
2022/12/09 01:32:30;;;;;;;28.63;16.27;;;;;;;-1.74;100.00;100540.97;2062687;28;32656;-71
2022/12/09 01:33:33;;;;;;;24.92;14.93;;;;;;;-1.77;100.00;100548.75;2063428;28;20126;-71
2022/12/09 01:34:35;;;;;;;26.88;15.98;;;;;;;-1.82;100.00;100557.41;2063130;28;25417;-72
2022/12/09 01:35:40;;;;;;;25.30;13.80;;;;;;;-1.87;100.00;100546.78;2054646;28;20817;-71
2022/12/09 01:36:42;;;;;;;23.80;14.38;;;;;;;-1.89;100.00;100552.88;2063952;28;26116;-71
2022/12/09 01:37:44;;;;;;;26.50;14.95;;;;;;;-1.91;100.00;100550.22;2062644;28;24930;-72
2022/12/09 01:38:46;;;;;;;26.20;14.50;;;;;;;-1.91;100.00;100550.22;2063552;28;20062;-71
2022/12/09 01:39:50;;;;;;;39.63;17.17;;;;;;;-1.86;100.00;100551.19;2071449;28;29628;-72
2022/12/09 01:40:52;;;;;;;29.58;16.02;;;;;;;-1.84;100.00;100552.13;2062954;28;25271;-71
2022/12/09 01:41:54;;;;;;;29.08;15.73;;;;;;;-1.79;100.00;100546.97;2062567;28;26830;-71
2022/12/09 01:42:56;;;;;;;32.92;16.90;;;;;;;-1.78;100.00;100554.84;2071189;28;23227;-71
2022/12/09 01:44:26;;;;;;;27.98;15.38;;;;;;;-1.78;100.00;100546.09;2063003;28;20046;-71
2022/12/09 01:45:31;;;;;;;26.38;14.48;;;;;;;-1.79;100.00;100544.34;2067465;28;20042;-72
2022/12/09 01:46:35;;;;;;;30.77;15.52;;;;;;;-1.77;100.00;100540.88;2071984;28;20041;-70
2022/12/09 01:47:37;;;;;;;28.65;15.90;;;;;;;-1.76;100.00;100545.28;2071438;28;33129;-72
2022/12/09 01:48:45;;;;;;;32.33;18.20;;;;;;;-1.75;100.00;100541.81;2063355;28;20051;-72
2022/12/09 01:49:47;;;;;;;29.60;16.45;;;;;;;-1.72;100.00;100546.25;2055400;28;28933;-72
2022/12/09 01:50:59;;;;;;;29.73;15.73;;;;;;;-1.71;100.00;100539.25;2062970;28;26999;-72
2022/12/09 01:52:17;;;;;;;29.52;16.33;;;;;;;-1.69;100.00;100551.53;2063120;28;28977;-72
2022/12/09 01:53:24;;;;;;;29.05;16.23;;;;;;;-1.67;100.00;100549.84;2046720;28;20898;-72
2022/12/09 01:54:27;;;;;;;30.25;16.42;;;;;;;-1.65;100.00;100545.53;2048823;28;20114;-72
2022/12/09 01:55:29;;;;;;;34.38;17.83;;;;;;;-1.63;100.00;100541.19;2048705;28;20078;-72
2022/12/09 01:56:36;;;;;;;30.45;16.77;;;;;;;-1.60;100.00;100543.88;2040495;28;20914;-71
2022/12/09 01:57:41;;;;;;;31.63;16.73;;;;;;;-1.56;100.00;100544.81;2049523;28;20786;-72
2022/12/09 01:58:44;;;;;;;32.60;18.08;;;;;;;-1.51;100.00;100542.25;2048457;28;21025;-71
2022/12/09 01:59:46;;;;;;;36.13;18.67;;;;;;;-1.48;100.00;100542.34;2048331;28;20048;-71
2022/12/09 02:00:49;;;;;;;34.67;18.35;;;;;;;-1.46;100.00;100544.13;2056632;28;20055;-72
2022/12/09 02:01:58;;;;;;;33.38;17.67;;;;;;;-1.46;100.00;100543.25;2056467;28;20181;-72
2022/12/09 02:03:01;;;;;;;32.53;16.60;;;;;;;-1.44;100.00;100545.03;2056522;28;32235;-71
2022/12/09 02:04:04;;;;;;;34.25;17.65;;;;;;;-1.41;100.00;100544.22;2056463;28;20944;-71
2022/12/09 02:05:06;;;;;;;29.48;17.08;;;;;;;-1.40;100.00;100541.63;2064075;28;20050;-71
2022/12/09 02:06:09;;;;;;;34.28;18.50;;;;;;;-1.38;100.00;100533.78;2056256;28;20035;-71
2022/12/09 02:07:11;;;;;;;31.33;17.45;;;;;;;-1.36;100.00;100538.19;2040399;28;20049;-72
2022/12/09 02:08:17;;;;;;;29.13;16.23;;;;;;;-1.35;100.00;100541.69;2049126;28;20087;-71
2022/12/09 02:09:19;;;;;;;32.17;17.10;;;;;;;-1.35;100.00;100537.34;2048368;28;20333;-71
2022/12/09 02:10:26;;;;;;;30.90;17.77;;;;;;;-1.34;100.00;100538.22;2042230;28;20044;-72
2022/12/09 02:11:53;;;;;;;34.17;17.65;;;;;;;-1.28;100.00;100534.84;2049816;28;20856;-71
2022/12/09 02:13:29;;;;;;;35.75;17.52;;;;;;;-1.29;100.00;100526.06;2058887;28;21074;-70
2022/12/09 02:14:43;;;;;;;35.90;17.67;;;;;;;-1.24;100.00;100528.78;2048655;28;20944;-72
2022/12/09 02:15:52;;;;;;;38.42;19.77;;;;;;;-1.22;100.00;100533.22;2048511;28;20032;-71
2022/12/09 02:17:24;;;;;;;35.08;17.77;;;;;;;-1.21;100.00;100531.47;2057202;28;20043;-71
2022/12/09 02:18:41;;;;;;;34.05;17.77;;;;;;;-1.21;100.00;100534.09;2055609;28;20114;-71
2022/12/09 02:20:00;;;;;;;34.47;17.67;;;;;;;-1.18;100.00;100534.16;2049632;28;20111;-72
2022/12/09 02:21:22;;;;;;;33.80;17.10;;;;;;;-1.18;100.00;100535.03;2048356;28;20130;-71
2022/12/09 02:23:02;;;;;;;30.23;17.27;;;;;;;-1.16;100.00;100529.81;2048276;28;20047;-70
2022/12/09 02:24:28;;;;;;;30.00;15.75;;;;;;;-1.15;100.00;100523.69;2061450;28;27710;-70
2022/12/09 02:25:46;;;;;;;33.50;18.08;;;;;;;-1.12;100.00;100528.13;2056075;28;20051;-71
2022/12/09 02:27:04;;;;;;;35.45;18.17;;;;;;;-1.12;100.00;100529.00;2050644;28;20051;-71
2022/12/09 02:28:39;;;;;;;33.65;18.50;;;;;;;-1.11;100.00;100535.13;2058540;28;20039;-72
2022/12/09 02:30:10;;;;;;;33.38;17.05;;;;;;;-1.10;100.00;100529.03;2063963;28;20042;-71
2022/12/09 02:31:39;;;;;;;35.63;18.45;;;;;;;-1.10;100.00;100529.91;2056212;28;20991;-72
2022/12/09 02:32:54;;;;;;;34.35;17.65;;;;;;;-1.08;100.00;100527.31;2059272;28;20077;-72
2022/12/09 02:34:20;;;;;;;35.92;18.42;;;;;;;-1.08;100.00;100524.69;2063499;28;20050;-71
2022/12/09 02:36:02;;;;;;;31.10;16.10;;;;;;;-1.07;100.00;100516.84;2063465;28;20090;-71
2022/12/09 02:37:24;;;;;;;36.22;18.50;;;;;;;-1.05;100.00;100522.13;2064235;28;20047;-71
2022/12/09 02:38:32;;;;;;;28.77;17.15;;;;;;;-1.06;100.00;100523.88;2052805;28;20044;-72
2022/12/09 02:40:01;;;;;;;32.10;17.02;;;;;;;-1.04;100.00;100516.91;2042418;28;20129;-71
2022/12/09 02:41:14;;;;;;;33.90;18.50;;;;;;;-1.04;100.00;100516.00;2056148;28;20797;-71
2022/12/09 02:42:26;;;;;;;34.35;19.02;;;;;;;-1.01;100.00;100518.69;2056335;28;20051;-71
2022/12/09 02:43:36;;;;;;;34.47;18.35;;;;;;;-1.01;100.00;100516.06;2043166;28;20032;-71
2022/12/09 02:44:41;;;;;;;35.15;18.15;;;;;;;-1.01;100.00;100516.94;2035569;28;20902;-71
2022/12/09 02:45:45;;;;;;;35.15;18.48;;;;;;;-1.01;100.00;100521.31;2034755;28;20048;-71
2022/12/09 02:46:52;;;;;;;39.67;19.42;;;;;;;-1.01;100.00;100516.06;2047956;28;20075;-71
2022/12/09 02:47:57;;;;;;;38.25;19.65;;;;;;;-1.00;100.00;100513.44;2049391;28;20036;-71
2022/12/09 02:48:59;;;;;;;38.45;18.70;;;;;;;-0.99;100.00;100514.31;2051518;28;20052;-72
2022/12/09 02:50:06;;;;;;;33.03;18.48;;;;;;;-0.99;100.00;100514.31;2056467;28;20763;-71
2022/12/09 02:51:16;;;;;;;33.17;18.30;;;;;;;-0.99;100.00;100519.59;2049308;28;20048;-71
2022/12/09 02:52:20;;;;;;;37.00;19.90;;;;;;;-1.00;100.00;100512.56;2050461;28;23743;-71
2022/12/09 02:53:27;;;;;;;39.03;20.75;;;;;;;-1.01;100.00;100510.78;2048619;28;20047;-71
2022/12/09 02:54:33;;;;;;;35.55;19.98;;;;;;;-1.02;100.00;100514.31;2058339;28;20862;-71
2022/12/09 02:55:36;;;;;;;34.97;19.08;;;;;;;-1.05;100.00;100507.22;2064347;28;25065;-71
2022/12/09 02:56:43;;;;;;;35.60;18.88;;;;;;;-1.05;100.00;100514.25;2048991;28;20079;-71
2022/12/09 02:57:49;;;;;;;34.92;17.65;;;;;;;-1.06;100.00;100509.81;2056583;28;23071;-71
2022/12/09 02:58:51;;;;;;;29.60;17.48;;;;;;;-1.08;100.00;100503.66;2056684;28;20109;-71
2022/12/09 02:59:58;;;;;;;35.10;19.88;;;;;;;-1.10;100.00;100511.50;2064369;28;20043;-71
2022/12/09 03:01:00;;;;;;;36.95;19.08;;;;;;;-1.12;100.00;100509.72;2063662;28;31615;-71
2022/12/09 03:02:32;;;;;;;33.35;18.17;;;;;;;-1.10;100.00;100513.25;2064261;28;26920;-71
2022/12/09 03:03:34;;;;;;;35.30;19.10;;;;;;;-1.12;100.00;100507.09;2059742;28;28368;-71
2022/12/09 03:04:38;;;;;;;32.33;18.27;;;;;;;-1.11;100.00;100514.09;2050044;28;33197;-71
2022/12/09 03:05:48;;;;;;;36.90;18.50;;;;;;;-1.14;100.00;100503.56;2055149;28;30505;-71
2022/12/09 03:06:53;;;;;;;28.42;17.13;;;;;;;-1.14;100.00;100500.94;2064204;28;33517;-71
2022/12/09 03:08:31;;;;;;;29.65;16.55;;;;;;;-1.14;100.00;100503.56;2063500;28;30977;-69
2022/12/09 03:09:39;;;;;;;31.52;15.95;;;;;;;-1.16;100.00;100506.16;2057934;28;31151;-71
2022/12/09 03:11:02;;;;;;;38.20;19.58;;;;;;;-1.18;100.00;100508.75;2052155;28;34372;-71
2022/12/09 03:12:08;;;;;;;38.75;18.23;;;;;;;-1.20;100.00;100499.09;2059812;28;24082;-71
2022/12/09 03:13:18;;;;;;;30.73;16.35;;;;;;;-1.24;100.00;100503.41;2063627;28;31445;-72
2022/12/09 03:14:37;;;;;;;37.75;18.65;;;;;;;-1.23;100.00;100513.03;2062160;28;31618;-72
2022/12/09 03:15:48;;;;;;;34.55;19.40;;;;;;;-1.23;100.00;100506.91;2059457;28;20796;-72
2022/12/09 03:17:02;;;;;;;34.22;19.42;;;;;;;-1.20;100.00;100510.47;2064591;28;20035;-72
2022/12/09 03:18:10;;;;;;;32.58;18.85;;;;;;;-1.18;100.00;100506.13;2063559;28;27261;-72
2022/12/09 03:19:34;;;;;;;37.65;19.65;;;;;;;-1.18;100.00;100508.75;2064530;28;31356;-72
2022/12/09 03:20:40;;;;;;;36.13;18.98;;;;;;;-1.15;100.00;100507.91;2059190;28;31529;-72
2022/12/09 03:21:47;;;;;;;34.22;18.35;;;;;;;-1.16;100.00;100498.28;2058395;28;30020;-71
2022/12/09 03:22:52;;;;;;;35.67;19.27;;;;;;;-1.15;100.00;100500.03;2057230;28;30865;-71
2022/12/09 03:23:55;;;;;;;31.20;17.45;;;;;;;-1.14;100.00;100498.31;2064285;28;32668;-72
2022/12/09 03:25:19;;;;;;;37.72;20.17;;;;;;;-1.12;100.00;100496.59;2063538;28;20041;-71
2022/12/09 03:26:27;;;;;;;29.23;16.67;;;;;;;-1.11;100.00;100500.97;2058644;28;32924;-71
2022/12/09 03:27:58;;;;;;;33.90;19.13;;;;;;;-1.11;100.00;100498.34;2068078;28;20026;-71
2022/12/09 03:29:05;;;;;;;35.55;18.95;;;;;;;-1.11;100.00;100499.25;2063978;28;24566;-71
2022/12/09 03:30:09;;;;;;;35.72;18.25;;;;;;;-1.10;100.00;100505.38;2066909;28;32030;-72
2022/12/09 03:31:17;;;;;;;38.65;20.33;;;;;;;-1.10;100.00;100495.75;2063672;28;31293;-72
2022/12/09 03:32:24;;;;;;;37.33;19.27;;;;;;;-1.09;100.00;100496.66;2056480;28;31574;-72
2022/12/09 03:33:27;;;;;;;34.45;18.52;;;;;;;-1.08;100.00;100495.78;2057517;28;29436;-72
2022/12/09 03:34:35;;;;;;;30.23;16.48;;;;;;;-1.12;100.00;100497.47;2056101;28;29476;-72
2022/12/09 03:35:48;;;;;;;31.55;17.20;;;;;;;-1.11;100.00;100493.09;2056681;28;34224;-72
2022/12/09 03:36:51;;;;;;;27.45;16.50;;;;;;;-1.11;100.00;100500.97;2065996;28;29784;-72
2022/12/09 03:37:55;;;;;;;30.70;17.73;;;;;;;-1.13;100.00;100498.34;2072794;28;20915;-72
2022/12/09 03:38:59;;;;;;;34.70;17.10;;;;;;;-1.10;100.00;100500.13;2072216;28;27767;-72
2022/12/09 03:40:03;;;;;;;36.28;19.08;;;;;;;-1.11;100.00;100494.00;2063414;28;30975;-72
2022/12/09 03:41:28;;;;;;;36.50;18.00;;;;;;;-1.09;100.00;100502.78;2056835;28;31536;-72
2022/12/09 03:42:53;;;;;;;35.20;18.90;;;;;;;-1.08;100.00;100498.41;2059114;28;32554;-72
2022/12/09 03:44:10;;;;;;;29.65;16.95;;;;;;;-1.07;100.00;100505.44;2068593;28;35445;-71
2022/12/09 03:45:15;;;;;;;30.50;17.25;;;;;;;-1.05;100.00;100504.59;2063504;28;24859;-72
2022/12/09 03:46:19;;;;;;;34.50;18.92;;;;;;;-1.05;100.00;100508.97;2057478;28;32346;-72
2022/12/09 03:47:21;;;;;;;37.58;19.48;;;;;;;-1.03;100.00;100509.88;2056505;28;20082;-72
2022/12/09 03:48:24;;;;;;;34.95;19.02;;;;;;;-1.03;100.00;100508.13;2064132;28;33644;-72
2022/12/09 03:49:26;;;;;;;32.72;18.83;;;;;;;-1.03;100.00;100504.63;2062885;28;28636;-72
2022/12/09 03:50:38;;;;;;;39.78;20.48;;;;;;;-1.02;100.00;100509.03;2056181;28;27517;-72
2022/12/09 03:52:00;;;;;;;35.28;18.90;;;;;;;-1.02;100.00;100501.16;2065083;28;27958;-72
2022/12/09 03:53:11;;;;;;;35.90;19.58;;;;;;;-1.02;100.00;100499.41;2063346;28;28098;-72
2022/12/09 03:54:25;;;;;;;34.45;18.92;;;;;;;-1.01;100.00;100501.16;2059058;28;29430;-71
2022/12/09 03:55:43;;;;;;;35.95;19.60;;;;;;;-1.01;100.00;100503.78;2057520;28;36242;-72
2022/12/09 03:56:52;;;;;;;35.55;19.77;;;;;;;-1.02;100.00;100498.53;2066099;28;27577;-72
2022/12/09 03:57:58;;;;;;;33.78;18.02;;;;;;;-1.02;100.00;100506.41;2063185;28;36067;-72
2022/12/09 03:59:03;;;;;;;35.22;19.02;;;;;;;-1.02;100.00;100495.91;2063988;28;20046;-72
2022/12/09 04:00:06;;;;;;;33.65;20.23;;;;;;;-1.03;100.00;100502.00;2064532;28;27713;-72
2022/12/09 04:01:17;;;;;;;40.05;19.85;;;;;;;-1.01;100.00;100502.91;2063158;28;20055;-72
2022/12/09 04:02:20;;;;;;;35.78;19.85;;;;;;;-1.04;100.00;100500.22;2056732;28;31605;-72
2022/12/09 04:03:25;;;;;;;37.22;20.15;;;;;;;-1.06;100.00;100496.69;2063467;28;32159;-72
2022/12/09 04:04:27;;;;;;;34.55;19.30;;;;;;;-1.07;100.00;100503.69;2071419;28;32906;-72
2022/12/09 04:05:29;;;;;;;36.13;19.15;;;;;;;-1.09;100.00;100496.66;2063256;28;25510;-73
2022/12/09 04:06:32;;;;;;;36.35;19.15;;;;;;;-1.11;100.00;100495.72;2064282;28;21845;-73
2022/12/09 04:07:34;;;;;;;29.75;17.00;;;;;;;-1.12;100.00;100497.47;2072416;28;20946;-73
2022/12/09 04:08:36;;;;;;;37.03;20.63;;;;;;;-1.12;100.00;100496.59;2061946;28;35298;-73
2022/12/09 04:09:41;;;;;;;36.20;19.60;;;;;;;-1.14;100.00;100496.56;2066087;28;20034;-74
2022/12/09 04:10:42;;;;;;;36.60;19.83;;;;;;;-1.16;100.00;100493.91;2072533;28;28358;-74
2022/12/09 04:11:44;;;;;;;35.75;19.67;;;;;;;-1.17;100.00;100497.41;2071300;28;32309;-74
2022/12/09 04:12:46;;;;;;;36.33;19.75;;;;;;;-1.19;100.00;100493.84;2071446;28;33067;-74
2022/12/09 04:13:48;;;;;;;32.85;18.50;;;;;;;-1.21;100.00;100492.94;2072354;28;20043;-74
2022/12/09 04:14:50;;;;;;;37.00;20.08;;;;;;;-1.21;100.00;100497.31;2072078;28;32182;-74
2022/12/09 04:15:52;;;;;;;30.85;19.25;;;;;;;-1.19;100.00;100506.97;2072046;28;30872;-74
2022/12/09 04:16:54;;;;;;;34.10;19.70;;;;;;;-1.22;100.00;100501.69;2063084;28;27822;-74
2022/12/09 04:17:56;;;;;;;34.72;17.98;;;;;;;-1.21;100.00;100503.44;2063304;28;31395;-75
2022/12/09 04:18:58;;;;;;;32.40;18.58;;;;;;;-1.22;100.00;100500.78;2063753;28;29063;-74
2022/12/09 04:19:59;;;;;;;33.97;20.42;;;;;;;-1.22;100.00;100498.16;2054664;28;29093;-74
2022/12/09 04:21:08;;;;;;;32.58;18.83;;;;;;;-1.23;100.00;100504.28;2063886;28;20111;-74
2022/12/09 04:22:09;;;;;;;31.80;18.40;;;;;;;-1.24;100.00;100508.66;2071591;28;20109;-75
2022/12/09 04:23:11;;;;;;;35.92;20.10;;;;;;;-1.25;100.00;100499.00;2071876;28;31684;-74
2022/12/09 04:24:15;;;;;;;36.38;20.27;;;;;;;-1.24;100.00;100502.50;2071956;28;29430;-75
2022/12/09 04:25:17;;;;;;;30.88;18.10;;;;;;;-1.26;100.00;100494.59;2072238;28;23458;-74
2022/12/09 04:26:22;;;;;;;39.40;20.25;;;;;;;-1.27;100.00;100497.22;2071607;28;34548;-75
2022/12/09 04:27:24;;;;;;;31.83;17.60;;;;;;;-1.31;100.00;100493.66;2072464;28;20161;-75
2022/12/09 04:28:25;;;;;;;31.83;18.38;;;;;;;-1.33;100.00;100494.47;2071651;28;32552;-76
2022/12/09 04:29:28;;;;;;;35.05;19.75;;;;;;;-1.35;100.00;100494.44;2072029;28;28947;-76
2022/12/09 04:30:30;;;;;;;35.80;19.15;;;;;;;-1.35;100.00;100489.19;2071925;28;27811;-76
2022/12/09 04:31:32;;;;;;;33.50;19.20;;;;;;;-1.36;100.00;100497.94;2072199;28;28876;-76
2022/12/09 04:32:34;;;;;;;31.02;18.45;;;;;;;-1.37;100.00;100489.16;2071823;28;31092;-75
2022/12/09 04:33:36;;;;;;;39.80;21.40;;;;;;;-1.33;100.00;100487.47;2071873;28;32035;-75
2022/12/09 04:34:37;;;;;;;34.63;19.05;;;;;;;-1.36;100.00;100492.69;2071969;28;24108;-75
2022/12/09 04:35:41;;;;;;;38.50;20.13;;;;;;;-1.36;100.00;100493.56;2071848;28;28972;-75
2022/12/09 04:36:43;;;;;;;42.40;20.63;;;;;;;-1.38;100.00;100489.16;2072015;28;35007;-75
2022/12/09 04:37:45;;;;;;;38.97;20.83;;;;;;;-1.38;100.00;100492.66;2063268;28;31394;-75
2022/12/09 04:38:47;;;;;;;41.67;22.23;;;;;;;-1.37;100.00;100485.66;2062650;28;33094;-75
2022/12/09 04:39:49;;;;;;;37.75;21.48;;;;;;;-1.32;100.00;100488.38;2073816;28;28479;-75
2022/12/09 04:40:51;;;;;;;40.95;22.40;;;;;;;-1.34;100.00;100485.72;2071989;28;27868;-75
2022/12/09 04:41:52;;;;;;;37.90;19.73;;;;;;;-1.35;100.00;100481.31;2071508;28;32852;-75
2022/12/09 04:42:54;;;;;;;34.47;20.10;;;;;;;-1.38;100.00;100482.16;2071676;28;28210;-74
2022/12/09 04:43:56;;;;;;;39.63;20.33;;;;;;;-1.38;100.00;100489.16;2071999;28;29296;-75
2022/12/09 04:44:59;;;;;;;40.75;21.80;;;;;;;-1.36;100.00;100488.31;2063449;28;20996;-75
2022/12/09 04:46:04;;;;;;;37.72;19.35;;;;;;;-1.37;100.00;100483.91;2054990;28;34591;-75
2022/12/09 04:47:06;;;;;;;36.58;20.58;;;;;;;-1.37;100.00;100485.66;2063548;28;22073;-75
2022/12/09 04:48:08;;;;;;;41.35;20.95;;;;;;;-1.35;100.00;100483.94;2063463;28;27251;-75
2022/12/09 04:49:10;;;;;;;42.83;21.15;;;;;;;-1.33;100.00;100483.97;2063013;28;35299;-75
2022/12/09 04:50:12;;;;;;;38.58;21.45;;;;;;;-1.36;100.00;100484.81;2063013;28;26087;-75
2022/12/09 04:51:15;;;;;;;37.17;20.40;;;;;;;-1.36;100.00;100484.81;2063226;28;26485;-75
2022/12/09 04:52:20;;;;;;;41.50;21.33;;;;;;;-1.38;100.00;100478.66;2071399;28;31884;-75
2022/12/09 04:53:22;;;;;;;36.83;19.27;;;;;;;-1.39;100.00;100487.38;2072337;28;20035;-75
2022/12/09 04:54:24;;;;;;;39.17;20.83;;;;;;;-1.43;100.00;100477.69;2063185;28;31087;-75
2022/12/09 04:55:26;;;;;;;39.85;21.40;;;;;;;-1.46;100.00;100478.47;2062901;28;33209;-74
2022/12/09 04:56:28;;;;;;;36.10;19.98;;;;;;;-1.53;100.00;100481.84;2072180;28;29657;-74
2022/12/09 04:57:30;;;;;;;39.63;21.33;;;;;;;-1.57;100.00;100472.16;2071666;28;31958;-75
2022/12/09 04:58:32;;;;;;;37.92;20.60;;;;;;;-1.62;100.00;100473.81;2071825;28;29493;-74